sensor_id;sensor_type;location;lat;lon;timestamp;P1;durP1;ratioP1;P2;durP2;ratioP2
52934;SDS011;38802;50.198;19.796;2023-03-23T00:00:47;22.80;;;15.20;;
52934;SDS011;38802;50.198;19.796;2023-03-23T00:03:14;16.70;;;13.50;;
52934;SDS011;38802;50.198;19.796;2023-03-23T00:05:40;18.90;;;13.70;;
52934;SDS011;38802;50.198;19.796;2023-03-23T00:08:19;14.70;;;12.80;;
52934;SDS011;38802;50.198;19.796;2023-03-23T00:10:49;14.80;;;12.50;;
52934;SDS011;38802;50.198;19.796;2023-03-23T00:13:25;17.90;;;12.40;;
52934;SDS011;38802;50.198;19.796;2023-03-23T00:15:52;17.70;;;12.40;;
52934;SDS011;38802;50.198;19.796;2023-03-23T00:18:18;15.10;;;12.50;;
52934;SDS011;38802;50.198;19.796;2023-03-23T00:20:49;16.00;;;12.40;;
52934;SDS011;38802;50.198;19.796;2023-03-23T00:23:18;13.80;;;11.80;;
52934;SDS011;38802;50.198;19.796;2023-03-23T00:25:46;14.40;;;11.70;;
52934;SDS011;38802;50.198;19.796;2023-03-23T00:28:14;15.00;;;10.80;;
52934;SDS011;38802;50.198;19.796;2023-03-23T00:30:44;13.00;;;11.60;;
52934;SDS011;38802;50.198;19.796;2023-03-23T00:33:10;16.90;;;11.60;;
52934;SDS011;38802;50.198;19.796;2023-03-23T00:35:39;15.80;;;11.00;;
52934;SDS011;38802;50.198;19.796;2023-03-23T00:38:06;14.10;;;11.20;;
52934;SDS011;38802;50.198;19.796;2023-03-23T00:40:34;13.20;;;11.50;;
52934;SDS011;38802;50.198;19.796;2023-03-23T00:43:02;15.50;;;11.10;;
52934;SDS011;38802;50.198;19.796;2023-03-23T00:45:29;18.40;;;11.70;;
52934;SDS011;38802;50.198;19.796;2023-03-23T00:47:55;18.30;;;11.50;;
52934;SDS011;38802;50.198;19.796;2023-03-23T00:50:23;12.20;;;11.00;;
52934;SDS011;38802;50.198;19.796;2023-03-23T00:52:49;13.50;;;11.10;;
52934;SDS011;38802;50.198;19.796;2023-03-23T00:55:18;12.50;;;11.00;;
52934;SDS011;38802;50.198;19.796;2023-03-23T00:57:44;19.10;;;12.70;;
52934;SDS011;38802;50.198;19.796;2023-03-23T01:00:11;14.60;;;11.80;;
52934;SDS011;38802;50.198;19.796;2023-03-23T01:02:37;14.70;;;11.90;;
52934;SDS011;38802;50.198;19.796;2023-03-23T01:05:06;13.60;;;11.10;;
52934;SDS011;38802;50.198;19.796;2023-03-23T01:07:32;15.40;;;10.90;;
52934;SDS011;38802;50.198;19.796;2023-03-23T01:10:00;11.50;;;10.30;;
52934;SDS011;38802;50.198;19.796;2023-03-23T01:12:27;16.70;;;12.60;;
52934;SDS011;38802;50.198;19.796;2023-03-23T01:14:55;13.40;;;10.50;;
52934;SDS011;38802;50.198;19.796;2023-03-23T01:17:21;12.90;;;11.50;;
52934;SDS011;38802;50.198;19.796;2023-03-23T01:19:48;12.80;;;10.50;;
52934;SDS011;38802;50.198;19.796;2023-03-23T01:22:14;12.70;;;11.40;;
52934;SDS011;38802;50.198;19.796;2023-03-23T01:24:40;12.10;;;10.60;;
52934;SDS011;38802;50.198;19.796;2023-03-23T01:27:07;14.60;;;11.60;;
52934;SDS011;38802;50.198;19.796;2023-03-23T01:29:34;12.60;;;10.20;;
52934;SDS011;38802;50.198;19.796;2023-03-23T01:32:01;11.50;;;10.20;;
52934;SDS011;38802;50.198;19.796;2023-03-23T01:34:29;11.30;;;10.20;;
52934;SDS011;38802;50.198;19.796;2023-03-23T01:36:58;12.50;;;10.50;;
52934;SDS011;38802;50.198;19.796;2023-03-23T01:39:26;11.10;;;10.00;;
52934;SDS011;38802;50.198;19.796;2023-03-23T01:41:52;12.90;;;10.50;;
52934;SDS011;38802;50.198;19.796;2023-03-23T01:47:01;11.30;;;10.10;;
52934;SDS011;38802;50.198;19.796;2023-03-23T01:49:29;12.00;;;10.80;;
52934;SDS011;38802;50.198;19.796;2023-03-23T01:52:02;11.50;;;9.70;;
52934;SDS011;38802;50.198;19.796;2023-03-23T01:54:32;13.40;;;9.90;;
52934;SDS011;38802;50.198;19.796;2023-03-23T01:57:04;14.00;;;10.50;;
52934;SDS011;38802;50.198;19.796;2023-03-23T01:59:43;13.50;;;9.90;;
52934;SDS011;38802;50.198;19.796;2023-03-23T02:02:24;14.70;;;10.50;;
52934;SDS011;38802;50.198;19.796;2023-03-23T02:04:55;12.40;;;9.60;;
52934;SDS011;38802;50.198;19.796;2023-03-23T02:07:27;12.10;;;9.00;;
52934;SDS011;38802;50.198;19.796;2023-03-23T02:09:56;18.40;;;10.30;;
52934;SDS011;38802;50.198;19.796;2023-03-23T02:12:22;16.20;;;9.40;;
52934;SDS011;38802;50.198;19.796;2023-03-23T02:14:49;11.30;;;9.00;;
52934;SDS011;38802;50.198;19.796;2023-03-23T02:17:23;9.50;;;8.60;;
52934;SDS011;38802;50.198;19.796;2023-03-23T02:31:01;11.90;;;8.60;;
52934;SDS011;38802;50.198;19.796;2023-03-23T02:36:30;11.30;;;7.90;;
52934;SDS011;38802;50.198;19.796;2023-03-23T02:42:08;9.50;;;7.20;;
52934;SDS011;38802;50.198;19.796;2023-03-23T02:44:40;7.80;;;7.10;;
52934;SDS011;38802;50.198;19.796;2023-03-23T02:47:11;7.60;;;6.80;;
52934;SDS011;38802;50.198;19.796;2023-03-23T02:49:41;7.30;;;6.60;;
52934;SDS011;38802;50.198;19.796;2023-03-23T02:52:12;8.00;;;6.80;;
52934;SDS011;38802;50.198;19.796;2023-03-23T02:54:46;9.10;;;6.80;;
52934;SDS011;38802;50.198;19.796;2023-03-23T02:57:15;7.50;;;6.80;;
52934;SDS011;38802;50.198;19.796;2023-03-23T02:59:43;10.60;;;7.20;;
52934;SDS011;38802;50.198;19.796;2023-03-23T03:02:09;8.30;;;7.20;;
52934;SDS011;38802;50.198;19.796;2023-03-23T03:04:37;7.50;;;6.80;;
52934;SDS011;38802;50.198;19.796;2023-03-23T03:09:55;7.50;;;6.80;;
52934;SDS011;38802;50.198;19.796;2023-03-23T03:12:41;7.50;;;6.80;;
52934;SDS011;38802;50.198;19.796;2023-03-23T03:17:49;11.10;;;8.30;;
52934;SDS011;38802;50.198;19.796;2023-03-23T03:20:40;8.80;;;8.00;;
52934;SDS011;38802;50.198;19.796;2023-03-23T03:23:15;11.00;;;8.30;;
52934;SDS011;38802;50.198;19.796;2023-03-23T03:25:43;8.60;;;7.80;;
52934;SDS011;38802;50.198;19.796;2023-03-23T03:28:18;9.10;;;8.30;;
52934;SDS011;38802;50.198;19.796;2023-03-23T03:30:52;10.10;;;8.10;;
52934;SDS011;38802;50.198;19.796;2023-03-23T03:33:22;11.10;;;9.00;;
52934;SDS011;38802;50.198;19.796;2023-03-23T03:35:54;14.20;;;9.60;;
52934;SDS011;38802;50.198;19.796;2023-03-23T03:38:22;9.80;;;8.50;;
52934;SDS011;38802;50.198;19.796;2023-03-23T03:40:50;10.30;;;9.20;;
52934;SDS011;38802;50.198;19.796;2023-03-23T03:43:17;10.90;;;9.90;;
52934;SDS011;38802;50.198;19.796;2023-03-23T03:45:43;13.20;;;10.10;;
52934;SDS011;38802;50.198;19.796;2023-03-23T03:48:11;13.50;;;10.10;;
52934;SDS011;38802;50.198;19.796;2023-03-23T03:50:38;11.40;;;10.00;;
52934;SDS011;38802;50.198;19.796;2023-03-23T03:53:05;11.50;;;9.40;;
52934;SDS011;38802;50.198;19.796;2023-03-23T03:55:32;17.50;;;10.00;;
52934;SDS011;38802;50.198;19.796;2023-03-23T03:58:06;10.00;;;9.00;;
52934;SDS011;38802;50.198;19.796;2023-03-23T04:00:54;10.20;;;9.10;;
52934;SDS011;38802;50.198;19.796;2023-03-23T04:03:26;11.40;;;9.60;;
52934;SDS011;38802;50.198;19.796;2023-03-23T04:06:01;11.40;;;9.80;;
52934;SDS011;38802;50.198;19.796;2023-03-23T04:08:28;10.70;;;9.60;;
52934;SDS011;38802;50.198;19.796;2023-03-23T04:10:54;12.70;;;9.80;;
52934;SDS011;38802;50.198;19.796;2023-03-23T04:13:21;10.50;;;9.50;;
52934;SDS011;38802;50.198;19.796;2023-03-23T04:16:14;10.30;;;9.20;;
52934;SDS011;38802;50.198;19.796;2023-03-23T04:18:43;12.80;;;9.70;;
52934;SDS011;38802;50.198;19.796;2023-03-23T04:21:09;12.00;;;8.90;;
52934;SDS011;38802;50.198;19.796;2023-03-23T04:23:35;14.10;;;9.30;;
52934;SDS011;38802;50.198;19.796;2023-03-23T04:26:03;9.60;;;8.60;;
52934;SDS011;38802;50.198;19.796;2023-03-23T04:28:36;10.70;;;8.00;;
52934;SDS011;38802;50.198;19.796;2023-03-23T04:31:25;10.30;;;8.30;;
52934;SDS011;38802;50.198;19.796;2023-03-23T04:33:55;11.50;;;8.20;;
52934;SDS011;38802;50.198;19.796;2023-03-23T04:36:23;10.40;;;8.00;;
52934;SDS011;38802;50.198;19.796;2023-03-23T04:39:01;8.70;;;7.80;;
52934;SDS011;38802;50.198;19.796;2023-03-23T04:41:29;13.10;;;8.60;;
52934;SDS011;38802;50.198;19.796;2023-03-23T04:44:11;8.60;;;7.80;;
52934;SDS011;38802;50.198;19.796;2023-03-23T04:46:54;10.50;;;7.10;;
52934;SDS011;38802;50.198;19.796;2023-03-23T04:49:20;8.50;;;7.70;;
52934;SDS011;38802;50.198;19.796;2023-03-23T04:51:51;8.70;;;6.70;;
52934;SDS011;38802;50.198;19.796;2023-03-23T04:54:38;8.70;;;7.40;;
52934;SDS011;38802;50.198;19.796;2023-03-23T04:57:05;7.70;;;6.90;;
52934;SDS011;38802;50.198;19.796;2023-03-23T04:59:32;9.90;;;6.80;;
52934;SDS011;38802;50.198;19.796;2023-03-23T05:02:12;9.90;;;7.80;;
52934;SDS011;38802;50.198;19.796;2023-03-23T05:04:40;7.90;;;7.20;;
52934;SDS011;38802;50.198;19.796;2023-03-23T05:07:10;7.70;;;7.00;;
52934;SDS011;38802;50.198;19.796;2023-03-23T05:09:46;13.70;;;7.70;;
52934;SDS011;38802;50.198;19.796;2023-03-23T05:12:13;10.50;;;7.40;;
52934;SDS011;38802;50.198;19.796;2023-03-23T05:14:56;8.30;;;7.50;;
52934;SDS011;38802;50.198;19.796;2023-03-23T05:17:24;8.10;;;7.30;;
52934;SDS011;38802;50.198;19.796;2023-03-23T05:19:53;8.10;;;6.80;;
52934;SDS011;38802;50.198;19.796;2023-03-23T05:22:33;10.70;;;7.60;;
52934;SDS011;38802;50.198;19.796;2023-03-23T05:25:00;9.80;;;7.00;;
52934;SDS011;38802;50.198;19.796;2023-03-23T05:27:33;13.90;;;7.00;;
52934;SDS011;38802;50.198;19.796;2023-03-23T05:30:03;7.30;;;6.60;;
52934;SDS011;38802;50.198;19.796;2023-03-23T05:32:32;7.70;;;6.90;;
52934;SDS011;38802;50.198;19.796;2023-03-23T05:35:07;11.60;;;6.60;;
52934;SDS011;38802;50.198;19.796;2023-03-23T05:37:33;7.40;;;6.70;;
52934;SDS011;38802;50.198;19.796;2023-03-23T05:40:08;9.80;;;6.90;;
52934;SDS011;38802;50.198;19.796;2023-03-23T05:42:48;7.80;;;7.10;;
52934;SDS011;38802;50.198;19.796;2023-03-23T05:45:27;8.90;;;6.90;;
52934;SDS011;38802;50.198;19.796;2023-03-23T05:47:53;7.60;;;6.80;;
52934;SDS011;38802;50.198;19.796;2023-03-23T05:50:20;9.30;;;6.90;;
52934;SDS011;38802;50.198;19.796;2023-03-23T05:52:47;7.70;;;6.60;;
52934;SDS011;38802;50.198;19.796;2023-03-23T05:55:15;7.10;;;6.50;;
52934;SDS011;38802;50.198;19.796;2023-03-23T05:57:43;7.90;;;7.10;;
52934;SDS011;38802;50.198;19.796;2023-03-23T06:00:32;10.00;;;6.60;;
52934;SDS011;38802;50.198;19.796;2023-03-23T06:03:10;8.90;;;6.80;;
52934;SDS011;38802;50.198;19.796;2023-03-23T06:05:45;7.50;;;6.80;;
52934;SDS011;38802;50.198;19.796;2023-03-23T06:08:14;6.20;;;5.60;;
52934;SDS011;38802;50.198;19.796;2023-03-23T06:10:40;7.50;;;6.00;;
52934;SDS011;38802;50.198;19.796;2023-03-23T06:13:07;6.50;;;5.90;;
52934;SDS011;38802;50.198;19.796;2023-03-23T06:15:39;6.90;;;6.30;;
52934;SDS011;38802;50.198;19.796;2023-03-23T06:18:22;6.10;;;5.60;;
52934;SDS011;38802;50.198;19.796;2023-03-23T06:21:18;9.90;;;6.10;;
52934;SDS011;38802;50.198;19.796;2023-03-23T06:23:49;7.30;;;6.10;;
52934;SDS011;38802;50.198;19.796;2023-03-23T06:26:17;6.40;;;5.80;;
52934;SDS011;38802;50.198;19.796;2023-03-23T06:28:46;6.80;;;5.80;;
52934;SDS011;38802;50.198;19.796;2023-03-23T06:31:13;7.20;;;5.90;;
52934;SDS011;38802;50.198;19.796;2023-03-23T06:33:41;6.70;;;5.90;;
52934;SDS011;38802;50.198;19.796;2023-03-23T06:36:07;10.10;;;6.40;;
52934;SDS011;38802;50.198;19.796;2023-03-23T06:38:44;7.10;;;5.80;;
52934;SDS011;38802;50.198;19.796;2023-03-23T06:41:11;6.60;;;5.90;;
52934;SDS011;38802;50.198;19.796;2023-03-23T06:43:38;7.70;;;5.80;;
52934;SDS011;38802;50.198;19.796;2023-03-23T06:48:40;5.90;;;5.20;;
52934;SDS011;38802;50.198;19.796;2023-03-23T06:51:06;6.80;;;5.40;;
52934;SDS011;38802;50.198;19.796;2023-03-23T06:53:33;6.70;;;5.80;;
52934;SDS011;38802;50.198;19.796;2023-03-23T06:56:00;5.80;;;5.20;;
52934;SDS011;38802;50.198;19.796;2023-03-23T06:58:27;7.70;;;5.90;;
52934;SDS011;38802;50.198;19.796;2023-03-23T07:00:56;6.30;;;5.70;;
52934;SDS011;38802;50.198;19.796;2023-03-23T07:03:29;6.20;;;5.60;;
52934;SDS011;38802;50.198;19.796;2023-03-23T07:05:57;6.30;;;5.70;;
52934;SDS011;38802;50.198;19.796;2023-03-23T07:08:26;7.10;;;5.10;;
52934;SDS011;38802;50.198;19.796;2023-03-23T07:10:54;6.40;;;5.50;;
52934;SDS011;38802;50.198;19.796;2023-03-23T07:13:25;6.20;;;5.60;;
52934;SDS011;38802;50.198;19.796;2023-03-23T07:15:55;6.10;;;5.40;;
52934;SDS011;38802;50.198;19.796;2023-03-23T07:18:23;5.40;;;4.90;;
52934;SDS011;38802;50.198;19.796;2023-03-23T07:20:52;6.80;;;6.10;;
52934;SDS011;38802;50.198;19.796;2023-03-23T07:23:21;6.90;;;5.20;;
52934;SDS011;38802;50.198;19.796;2023-03-23T07:25:53;5.40;;;4.90;;
52934;SDS011;38802;50.198;19.796;2023-03-23T07:28:24;5.70;;;5.20;;
52934;SDS011;38802;50.198;19.796;2023-03-23T07:30:51;7.30;;;5.30;;
52934;SDS011;38802;50.198;19.796;2023-03-23T07:33:17;5.60;;;5.20;;
52934;SDS011;38802;50.198;19.796;2023-03-23T07:35:44;5.10;;;4.60;;
52934;SDS011;38802;50.198;19.796;2023-03-23T07:38:16;5.90;;;5.30;;
52934;SDS011;38802;50.198;19.796;2023-03-23T07:40:47;5.80;;;5.30;;
52934;SDS011;38802;50.198;19.796;2023-03-23T07:43:16;7.30;;;6.10;;
52934;SDS011;38802;50.198;19.796;2023-03-23T07:45:54;7.20;;;4.80;;
52934;SDS011;38802;50.198;19.796;2023-03-23T07:48:25;6.00;;;5.40;;
52934;SDS011;38802;50.198;19.796;2023-03-23T07:50:51;6.20;;;5.50;;
52934;SDS011;38802;50.198;19.796;2023-03-23T07:53:17;5.00;;;4.60;;
52934;SDS011;38802;50.198;19.796;2023-03-23T07:55:52;5.50;;;4.90;;
52934;SDS011;38802;50.198;19.796;2023-03-23T07:58:39;10.10;;;5.00;;
52934;SDS011;38802;50.198;19.796;2023-03-23T08:01:05;6.30;;;5.70;;
52934;SDS011;38802;50.198;19.796;2023-03-23T08:03:34;5.60;;;5.10;;
52934;SDS011;38802;50.198;19.796;2023-03-23T08:06:15;7.00;;;6.00;;
52934;SDS011;38802;50.198;19.796;2023-03-23T08:08:44;5.20;;;4.70;;
52934;SDS011;38802;50.198;19.796;2023-03-23T08:11:30;10.90;;;5.30;;
52934;SDS011;38802;50.198;19.796;2023-03-23T08:14:22;10.70;;;5.30;;
52934;SDS011;38802;50.198;19.796;2023-03-23T08:17:23;7.70;;;5.30;;
52934;SDS011;38802;50.198;19.796;2023-03-23T08:20:24;6.20;;;5.60;;
52934;SDS011;38802;50.198;19.796;2023-03-23T08:23:11;9.30;;;5.70;;
52934;SDS011;38802;50.198;19.796;2023-03-23T08:25:55;10.70;;;5.80;;
52934;SDS011;38802;50.198;19.796;2023-03-23T08:28:32;7.20;;;4.80;;
52934;SDS011;38802;50.198;19.796;2023-03-23T08:31:20;7.80;;;6.30;;
52934;SDS011;38802;50.198;19.796;2023-03-23T08:34:02;11.40;;;5.30;;
52934;SDS011;38802;50.198;19.796;2023-03-23T08:36:57;8.70;;;5.10;;
52934;SDS011;38802;50.198;19.796;2023-03-23T08:39:44;9.30;;;5.20;;
52934;SDS011;38802;50.198;19.796;2023-03-23T08:42:10;5.10;;;4.60;;
52934;SDS011;38802;50.198;19.796;2023-03-23T08:44:55;6.60;;;4.90;;
52934;SDS011;38802;50.198;19.796;2023-03-23T08:47:47;7.00;;;4.50;;
52934;SDS011;38802;50.198;19.796;2023-03-23T08:50:40;5.10;;;4.60;;
52934;SDS011;38802;50.198;19.796;2023-03-23T08:53:23;5.30;;;4.50;;
52934;SDS011;38802;50.198;19.796;2023-03-23T08:56:09;8.20;;;4.60;;
52934;SDS011;38802;50.198;19.796;2023-03-23T08:58:58;6.10;;;4.30;;
52934;SDS011;38802;50.198;19.796;2023-03-23T09:01:35;6.70;;;4.50;;
52934;SDS011;38802;50.198;19.796;2023-03-23T09:04:14;5.30;;;3.90;;
52934;SDS011;38802;50.198;19.796;2023-03-23T09:07:04;7.40;;;4.00;;
52934;SDS011;38802;50.198;19.796;2023-03-23T09:09:30;5.00;;;4.10;;
52934;SDS011;38802;50.198;19.796;2023-03-23T09:11:56;5.70;;;4.30;;
52934;SDS011;38802;50.198;19.796;2023-03-23T09:14:22;7.20;;;3.50;;
52934;SDS011;38802;50.198;19.796;2023-03-23T09:16:48;4.80;;;3.80;;
52934;SDS011;38802;50.198;19.796;2023-03-23T09:19:15;4.90;;;3.20;;
52934;SDS011;38802;50.198;19.796;2023-03-23T09:21:41;7.80;;;3.70;;
52934;SDS011;38802;50.198;19.796;2023-03-23T09:24:08;6.40;;;3.80;;
52934;SDS011;38802;50.198;19.796;2023-03-23T09:26:35;5.30;;;4.50;;
52934;SDS011;38802;50.198;19.796;2023-03-23T09:29:01;4.80;;;4.30;;
52934;SDS011;38802;50.198;19.796;2023-03-23T09:31:28;5.60;;;3.80;;
52934;SDS011;38802;50.198;19.796;2023-03-23T09:33:54;8.10;;;3.90;;
52934;SDS011;38802;50.198;19.796;2023-03-23T09:36:22;5.50;;;4.40;;
52934;SDS011;38802;50.198;19.796;2023-03-23T09:38:51;6.30;;;3.80;;
52934;SDS011;38802;50.198;19.796;2023-03-23T09:47:04;6.50;;;3.20;;
52934;SDS011;38802;50.198;19.796;2023-03-23T09:49:40;5.10;;;3.90;;
52934;SDS011;38802;50.198;19.796;2023-03-23T09:52:15;3.90;;;3.60;;
52934;SDS011;38802;50.198;19.796;2023-03-23T09:54:49;4.80;;;3.40;;
52934;SDS011;38802;50.198;19.796;2023-03-23T10:05:35;3.70;;;3.10;;
52934;SDS011;38802;50.198;19.796;2023-03-23T10:08:08;5.30;;;3.20;;
52934;SDS011;38802;50.198;19.796;2023-03-23T10:10:45;7.90;;;2.70;;
52934;SDS011;38802;50.198;19.796;2023-03-23T10:16:02;3.10;;;2.80;;
52934;SDS011;38802;50.198;19.796;2023-03-23T10:18:37;3.80;;;3.40;;
52934;SDS011;38802;50.198;19.796;2023-03-23T10:21:10;4.90;;;3.00;;
52934;SDS011;38802;50.198;19.796;2023-03-23T10:31:35;5.00;;;3.90;;
52934;SDS011;38802;50.198;19.796;2023-03-23T10:34:12;6.10;;;4.00;;
52934;SDS011;38802;50.198;19.796;2023-03-23T10:39:44;5.80;;;3.70;;
52934;SDS011;38802;50.198;19.796;2023-03-23T10:42:32;4.10;;;3.60;;
52934;SDS011;38802;50.198;19.796;2023-03-23T10:45:18;4.70;;;3.70;;
52934;SDS011;38802;50.198;19.796;2023-03-23T10:47:56;5.30;;;3.30;;
52934;SDS011;38802;50.198;19.796;2023-03-23T10:50:34;5.50;;;3.50;;
52934;SDS011;38802;50.198;19.796;2023-03-23T10:53:03;4.50;;;3.90;;
52934;SDS011;38802;50.198;19.796;2023-03-23T10:55:42;6.30;;;3.70;;
52934;SDS011;38802;50.198;19.796;2023-03-23T10:58:22;4.70;;;3.60;;
52934;SDS011;38802;50.198;19.796;2023-03-23T11:00:54;4.10;;;3.20;;
52934;SDS011;38802;50.198;19.796;2023-03-23T11:03:24;5.80;;;3.50;;
52934;SDS011;38802;50.198;19.796;2023-03-23T11:06:05;4.20;;;2.80;;
52934;SDS011;38802;50.198;19.796;2023-03-23T11:08:46;5.60;;;2.90;;
52934;SDS011;38802;50.198;19.796;2023-03-23T11:11:17;6.90;;;3.00;;
52934;SDS011;38802;50.198;19.796;2023-03-23T11:13:46;9.40;;;3.10;;
52934;SDS011;38802;50.198;19.796;2023-03-23T11:16:24;5.80;;;3.30;;
52934;SDS011;38802;50.198;19.796;2023-03-23T11:18:51;4.10;;;3.10;;
52934;SDS011;38802;50.198;19.796;2023-03-23T11:21:19;4.50;;;3.50;;
52934;SDS011;38802;50.198;19.796;2023-03-23T11:23:49;5.70;;;3.00;;
52934;SDS011;38802;50.198;19.796;2023-03-23T11:26:24;3.70;;;3.40;;
52934;SDS011;38802;50.198;19.796;2023-03-23T11:28:56;9.50;;;4.10;;
52934;SDS011;38802;50.198;19.796;2023-03-23T11:34:00;7.30;;;3.60;;
52934;SDS011;38802;50.198;19.796;2023-03-23T11:36:32;5.40;;;3.50;;
52934;SDS011;38802;50.198;19.796;2023-03-23T11:39:30;5.20;;;3.20;;
52934;SDS011;38802;50.198;19.796;2023-03-23T11:41:59;4.40;;;3.10;;
52934;SDS011;38802;50.198;19.796;2023-03-23T11:44:35;4.20;;;2.80;;
52934;SDS011;38802;50.198;19.796;2023-03-23T11:47:16;3.50;;;2.40;;
52934;SDS011;38802;50.198;19.796;2023-03-23T11:55:10;3.80;;;2.60;;
52934;SDS011;38802;50.198;19.796;2023-03-23T11:57:40;4.40;;;2.80;;
52934;SDS011;38802;50.198;19.796;2023-03-23T12:00:16;4.40;;;2.80;;
52934;SDS011;38802;50.198;19.796;2023-03-23T12:02:51;6.00;;;2.40;;
52934;SDS011;38802;50.198;19.796;2023-03-23T12:05:56;5.00;;;2.30;;
52934;SDS011;38802;50.198;19.796;2023-03-23T12:11:14;7.30;;;2.60;;
52934;SDS011;38802;50.198;19.796;2023-03-23T12:13:49;6.40;;;1.90;;
52934;SDS011;38802;50.198;19.796;2023-03-23T12:16:25;6.10;;;2.30;;
52934;SDS011;38802;50.198;19.796;2023-03-23T12:24:14;7.30;;;2.40;;
52934;SDS011;38802;50.198;19.796;2023-03-23T12:29:38;5.80;;;2.30;;
52934;SDS011;38802;50.198;19.796;2023-03-23T12:34:50;3.70;;;2.60;;
52934;SDS011;38802;50.198;19.796;2023-03-23T12:48:41;4.70;;;2.70;;
52934;SDS011;38802;50.198;19.796;2023-03-23T12:51:13;3.10;;;1.90;;
52934;SDS011;38802;50.198;19.796;2023-03-23T12:53:58;3.70;;;2.00;;
52934;SDS011;38802;50.198;19.796;2023-03-23T12:56:58;3.90;;;2.00;;
52934;SDS011;38802;50.198;19.796;2023-03-23T12:59:41;3.00;;;1.50;;
52934;SDS011;38802;50.198;19.796;2023-03-23T13:05:10;6.10;;;1.70;;
52934;SDS011;38802;50.198;19.796;2023-03-23T13:07:41;4.40;;;1.90;;
52934;SDS011;38802;50.198;19.796;2023-03-23T13:10:21;2.70;;;2.20;;
52934;SDS011;38802;50.198;19.796;2023-03-23T13:12:51;4.60;;;2.00;;
52934;SDS011;38802;50.198;19.796;2023-03-23T13:18:16;3.90;;;2.30;;
52934;SDS011;38802;50.198;19.796;2023-03-23T13:20:54;2.60;;;1.90;;
52934;SDS011;38802;50.198;19.796;2023-03-23T13:23:33;3.50;;;2.30;;
52934;SDS011;38802;50.198;19.796;2023-03-23T13:26:17;3.40;;;1.80;;
52934;SDS011;38802;50.198;19.796;2023-03-23T13:29:01;2.50;;;1.80;;
52934;SDS011;38802;50.198;19.796;2023-03-23T13:31:35;6.10;;;2.50;;
52934;SDS011;38802;50.198;19.796;2023-03-23T13:36:38;3.90;;;1.90;;
52934;SDS011;38802;50.198;19.796;2023-03-23T13:39:18;4.10;;;2.20;;
52934;SDS011;38802;50.198;19.796;2023-03-23T13:41:47;3.00;;;1.60;;
52934;SDS011;38802;50.198;19.796;2023-03-23T13:44:25;2.40;;;2.10;;
52934;SDS011;38802;50.198;19.796;2023-03-23T13:46:54;4.10;;;1.90;;
52934;SDS011;38802;50.198;19.796;2023-03-23T13:49:23;2.40;;;1.80;;
52934;SDS011;38802;50.198;19.796;2023-03-23T13:51:56;5.60;;;2.30;;
52934;SDS011;38802;50.198;19.796;2023-03-23T13:54:40;9.70;;;2.00;;
52934;SDS011;38802;50.198;19.796;2023-03-23T13:57:23;4.20;;;1.60;;
52934;SDS011;38802;50.198;19.796;2023-03-23T13:59:56;3.10;;;1.60;;
52934;SDS011;38802;50.198;19.796;2023-03-23T14:02:36;3.60;;;2.20;;
52934;SDS011;38802;50.198;19.796;2023-03-23T14:05:09;3.70;;;2.00;;
52934;SDS011;38802;50.198;19.796;2023-03-23T14:14:06;3.40;;;2.20;;
52934;SDS011;38802;50.198;19.796;2023-03-23T14:16:41;2.70;;;2.00;;
52934;SDS011;38802;50.198;19.796;2023-03-23T14:19:24;4.70;;;2.30;;
52934;SDS011;38802;50.198;19.796;2023-03-23T14:21:58;3.50;;;2.20;;
52934;SDS011;38802;50.198;19.796;2023-03-23T14:27:02;3.90;;;2.30;;
52934;SDS011;38802;50.198;19.796;2023-03-23T14:29:35;4.40;;;2.60;;
52934;SDS011;38802;50.198;19.796;2023-03-23T14:32:02;2.50;;;2.10;;
52934;SDS011;38802;50.198;19.796;2023-03-23T14:34:32;3.20;;;2.10;;
52934;SDS011;38802;50.198;19.796;2023-03-23T14:37:01;5.10;;;2.10;;
52934;SDS011;38802;50.198;19.796;2023-03-23T14:39:30;6.70;;;2.40;;
52934;SDS011;38802;50.198;19.796;2023-03-23T14:42:02;3.10;;;2.20;;
52934;SDS011;38802;50.198;19.796;2023-03-23T14:44:41;5.60;;;2.20;;
52934;SDS011;38802;50.198;19.796;2023-03-23T14:47:15;3.50;;;2.20;;
52934;SDS011;38802;50.198;19.796;2023-03-23T14:50:00;4.40;;;2.30;;
52934;SDS011;38802;50.198;19.796;2023-03-23T14:52:33;4.20;;;2.50;;
52934;SDS011;38802;50.198;19.796;2023-03-23T14:55:16;5.20;;;3.50;;
52934;SDS011;38802;50.198;19.796;2023-03-23T14:57:46;5.00;;;3.10;;
52934;SDS011;38802;50.198;19.796;2023-03-23T15:00:19;7.20;;;3.50;;
52934;SDS011;38802;50.198;19.796;2023-03-23T15:02:58;3.30;;;3.00;;
52934;SDS011;38802;50.198;19.796;2023-03-23T15:05:41;3.30;;;2.50;;
52934;SDS011;38802;50.198;19.796;2023-03-23T15:08:30;3.70;;;2.60;;
52934;SDS011;38802;50.198;19.796;2023-03-23T15:13:31;7.30;;;3.60;;
52934;SDS011;38802;50.198;19.796;2023-03-23T15:16:05;2.50;;;2.10;;
52934;SDS011;38802;50.198;19.796;2023-03-23T15:18:37;5.20;;;2.80;;
52934;SDS011;38802;50.198;19.796;2023-03-23T15:21:10;3.50;;;2.10;;
52934;SDS011;38802;50.198;19.796;2023-03-23T15:23:45;7.70;;;2.60;;
52934;SDS011;38802;50.198;19.796;2023-03-23T15:26:23;3.90;;;2.30;;
52934;SDS011;38802;50.198;19.796;2023-03-23T15:28:50;7.80;;;2.40;;
52934;SDS011;38802;50.198;19.796;2023-03-23T15:31:27;3.20;;;2.20;;
52934;SDS011;38802;50.198;19.796;2023-03-23T15:33:56;5.40;;;2.80;;
52934;SDS011;38802;50.198;19.796;2023-03-23T15:36:31;3.30;;;2.30;;
52934;SDS011;38802;50.198;19.796;2023-03-23T15:38:59;5.00;;;2.30;;
52934;SDS011;38802;50.198;19.796;2023-03-23T15:41:31;5.80;;;2.10;;
52934;SDS011;38802;50.198;19.796;2023-03-23T15:44:09;6.10;;;2.80;;
52934;SDS011;38802;50.198;19.796;2023-03-23T15:46:48;4.90;;;2.30;;
52934;SDS011;38802;50.198;19.796;2023-03-23T15:49:16;3.00;;;2.60;;
52934;SDS011;38802;50.198;19.796;2023-03-23T15:51:47;4.00;;;2.50;;
52934;SDS011;38802;50.198;19.796;2023-03-23T15:54:14;7.30;;;2.70;;
52934;SDS011;38802;50.198;19.796;2023-03-23T15:56:42;9.20;;;3.40;;
52934;SDS011;38802;50.198;19.796;2023-03-23T15:59:09;5.30;;;3.50;;
52934;SDS011;38802;50.198;19.796;2023-03-23T16:01:38;5.60;;;3.20;;
52934;SDS011;38802;50.198;19.796;2023-03-23T16:04:12;8.50;;;3.40;;
52934;SDS011;38802;50.198;19.796;2023-03-23T16:06:42;9.90;;;3.50;;
52934;SDS011;38802;50.198;19.796;2023-03-23T16:09:17;9.40;;;3.90;;
52934;SDS011;38802;50.198;19.796;2023-03-23T16:11:46;7.00;;;4.10;;
52934;SDS011;38802;50.198;19.796;2023-03-23T16:14:13;6.40;;;3.60;;
52934;SDS011;38802;50.198;19.796;2023-03-23T16:16:41;6.20;;;3.80;;
52934;SDS011;38802;50.198;19.796;2023-03-23T16:19:13;6.00;;;4.00;;
52934;SDS011;38802;50.198;19.796;2023-03-23T16:21:41;9.50;;;3.10;;
52934;SDS011;38802;50.198;19.796;2023-03-23T16:24:09;5.00;;;2.80;;
52934;SDS011;38802;50.198;19.796;2023-03-23T16:26:36;5.40;;;2.70;;
52934;SDS011;38802;50.198;19.796;2023-03-23T16:29:13;7.70;;;3.40;;
52934;SDS011;38802;50.198;19.796;2023-03-23T16:32:01;6.60;;;3.00;;
52934;SDS011;38802;50.198;19.796;2023-03-23T16:34:28;8.40;;;3.90;;
52934;SDS011;38802;50.198;19.796;2023-03-23T16:36:59;11.70;;;5.20;;
52934;SDS011;38802;50.198;19.796;2023-03-23T16:39:25;9.20;;;5.00;;
52934;SDS011;38802;50.198;19.796;2023-03-23T16:41:53;14.70;;;5.70;;
52934;SDS011;38802;50.198;19.796;2023-03-23T16:44:19;19.90;;;7.90;;
52934;SDS011;38802;50.198;19.796;2023-03-23T16:46:46;7.80;;;5.10;;
52934;SDS011;38802;50.198;19.796;2023-03-23T16:49:13;10.40;;;3.60;;